Time;durP1;ratioP1;P1;durP2;ratioP2;P2;SDS_P1;SDS_P2;PMS_P1;PMS_P2;Temp;Humidity;BMP_temperature;BMP_pressure;BME280_temperature;BME280_humidity;BME280_pressure;Samples;Min_cycle;Max_cycle;Signal;HPM_P1;HPM_P2
2021/10/12 00:00:31;;;;;;;;;;;10.10;1.00;;;;;;5070586;28;19947;-65
2021/10/12 00:02:57;;;;;;;;;;;10.10;1.00;;;;;;5070485;28;19920;-66
2021/10/12 00:05:22;;;;;;;;;;;10.10;1.00;;;;;;5072114;28;20420;-66
2021/10/12 00:07:48;;;;;;;;;;;10.10;1.00;;;;;;5071056;28;19920;-66
2021/10/12 00:10:13;;;;;;;;;;;10.20;99.90;;;;;;5071824;28;20436;-65
2021/10/12 00:12:39;;;;;;;;;;;10.20;99.90;;;;;;5068789;28;20376;-66
2021/10/12 00:15:05;;;;;;;;;;;10.20;99.90;;;;;;5071523;28;19995;-65
2021/10/12 00:17:30;;;;;;;;;;;10.10;99.90;;;;;;5071075;28;19908;-65
2021/10/12 00:19:56;;;;;;;;;;;10.10;99.90;;;;;;5071673;28;20345;-65
2021/10/12 00:22:21;;;;;;;;;;;10.10;99.90;;;;;;5070019;28;20215;-65
2021/10/12 00:24:47;;;;;;;;;;;10.10;99.90;;;;;;5071182;28;19909;-66
2021/10/12 00:27:12;;;;;;;;;;;10.10;99.90;;;;;;5069359;28;19913;-66
2021/10/12 00:29:38;;;;;;;;;;;10.10;99.90;;;;;;5070923;28;19939;-66
2021/10/12 00:32:03;;;;;;;;;;;10.10;99.90;;;;;;5069884;28;20013;-66
2021/10/12 00:34:29;;;;;;;;;;;10.10;99.90;;;;;;5071117;28;19909;-65
2021/10/12 00:36:54;;;;;;;;;;;10.20;99.90;;;;;;5070502;28;20315;-64
2021/10/12 00:39:20;;;;;;;;;;;10.10;99.90;;;;;;5071032;28;20336;-66
2021/10/12 00:41:45;;;;;;;;;;;10.20;13.60;;;;;;5068413;28;20447;-66
2021/10/12 00:44:11;;;;;;;;;;;10.10;98.10;;;;;;5052513;28;19913;-66
2021/10/12 00:46:37;;;;;;;;;;;10.10;99.90;;;;;;5070119;28;20392;-65
2021/10/12 00:49:03;;;;;;;;;;;10.10;99.90;;;;;;5070988;28;20009;-66
2021/10/12 00:51:29;;;;;;;;;;;10.10;99.90;;;;;;5052452;28;20288;-66
2021/10/12 00:53:54;;;;;;;;;;;10.10;99.90;;;;;;5069971;28;19991;-65
2021/10/12 00:56:20;;;;;;;;;;;10.10;59.10;;;;;;5069079;28;19956;-66
2021/10/12 00:58:48;;;;;;;;;;;10.10;1.00;;;;;;5069934;28;20003;-65
2021/10/12 01:01:13;;;;;;;;;;;10.20;1.00;;;;;;5070265;28;20265;-65
2021/10/12 01:03:39;;;;;;;;;;;10.20;99.90;;;;;;5069970;28;19912;-65
2021/10/12 01:06:05;;;;;;;;;;;10.20;99.90;;;;;;5070519;28;19913;-65
2021/10/12 01:08:30;;;;;;;;;;;10.10;99.90;;;;;;5069985;28;19916;-65
2021/10/12 01:10:56;;;;;;;;;;;10.10;1.00;;;;;;5070097;28;19909;-65
2021/10/12 01:13:22;;;;;;;;;;;10.00;1.00;;;;;;5067765;28;19920;-65
2021/10/12 01:15:48;;;;;;;;;;;10.00;1.00;;;;;;5070642;28;20381;-67
2021/10/12 01:18:14;;;;;;;;;;;9.90;99.90;;;;;;5070156;28;19922;-66
2021/10/12 01:20:40;;;;;;;;;;;10.00;99.90;;;;;;5070184;28;20006;-66
2021/10/12 01:23:06;;;;;;;;;;;10.00;99.90;;;;;;5069158;28;19975;-66
2021/10/12 01:25:32;;;;;;;;;;;10.00;99.90;;;;;;5070175;28;19961;-67
2021/10/12 01:27:58;;;;;;;;;;;10.00;99.90;;;;;;5067554;28;20317;-66
2021/10/12 01:30:23;;;;;;;;;;;10.00;1.00;;;;;;5070523;28;19935;-65
2021/10/12 01:32:49;;;;;;;;;;;10.00;99.90;;;;;;5068269;28;19916;-66
2021/10/12 01:35:15;;;;;;;;;;;10.00;99.90;;;;;;5070127;28;19908;-66
2021/10/12 01:37:41;;;;;;;;;;;9.90;1.00;;;;;;5069017;28;20413;-67
2021/10/12 01:40:07;;;;;;;;;;;9.90;1.00;;;;;;5069778;28;19920;-66
2021/10/12 01:42:33;;;;;;;;;;;9.90;1.00;;;;;;5066599;28;19927;-66
2021/10/12 01:44:59;;;;;;;;;;;9.80;1.00;;;;;;5069844;28;19909;-65
2021/10/12 01:47:25;;;;;;;;;;;9.70;1.00;;;;;;5069119;28;19920;-65
2021/10/12 01:49:50;;;;;;;;;;;9.70;27.00;;;;;;5069771;28;19932;-65
2021/10/12 01:52:16;;;;;;;;;;;9.70;99.90;;;;;;5068157;28;19916;-66
2021/10/12 01:54:41;;;;;;;;;;;9.60;99.90;;;;;;5069502;28;19912;-65
2021/10/12 01:57:07;;;;;;;;;;;9.60;99.90;;;;;;5067113;28;19912;-65
2021/10/12 01:59:32;;;;;;;;;;;9.60;99.90;;;;;;5069949;28;20326;-65
2021/10/12 02:02:01;;;;;;;;;;;9.60;99.90;;;;;;5068544;28;19909;-65
2021/10/12 02:04:27;;;;;;;;;;;9.50;99.90;;;;;;5069924;28;19919;-65
2021/10/12 02:06:52;;;;;;;;;;;9.50;99.90;;;;;;5068730;28;20351;-66
2021/10/12 02:09:19;;;;;;;;;;;9.50;99.90;;;;;;5069568;28;20369;-65
2021/10/12 02:11:45;;;;;;;;;;;9.40;99.90;;;;;;5066760;28;20007;-66
2021/10/12 02:14:11;;;;;;;;;;;9.40;1.00;;;;;;5069284;28;20023;-65
2021/10/12 02:16:36;;;;;;;;;;;9.50;1.00;;;;;;5068694;28;19948;-65
2021/10/12 02:19:02;;;;;;;;;;;9.50;1.00;;;;;;5069169;28;19955;-65
2021/10/12 02:21:27;;;;;;;;;;;9.50;1.00;;;;;;5069121;28;19957;-65
2021/10/12 02:23:53;;;;;;;;;;;9.50;1.00;;;;;;5068087;28;19912;-65
2021/10/12 02:26:19;;;;;;;;;;;9.60;1.00;;;;;;5067606;28;19970;-66
2021/10/12 02:28:44;;;;;;;;;;;9.60;1.00;;;;;;5068682;28;20310;-65
2021/10/12 02:31:10;;;;;;;;;;;9.70;1.00;;;;;;5068777;28;19952;-65
2021/10/12 02:33:35;;;;;;;;;;;9.70;1.00;;;;;;5068362;28;19917;-65
2021/10/12 02:36:01;;;;;;;;;;;9.70;99.90;;;;;;5069494;28;20681;-66
2021/10/12 02:38:26;;;;;;;;;;;9.70;99.90;;;;;;5068678;28;19908;-65
2021/10/12 02:40:52;;;;;;;;;;;9.60;99.90;;;;;;5069366;28;19912;-65
2021/10/12 02:43:18;;;;;;;;;;;9.60;1.00;;;;;;5066600;28;19935;-67
2021/10/12 02:45:43;;;;;;;;;;;9.60;1.00;;;;;;5069221;28;19912;-67
2021/10/12 02:48:09;;;;;;;;;;;9.60;1.00;;;;;;5068494;28;19952;-65
2021/10/12 02:50:37;;;;;;;;;;;9.60;1.00;;;;;;5069132;28;19982;-65
2021/10/12 02:53:03;;;;;;;;;;;9.70;1.00;;;;;;5067600;28;19938;-65
2021/10/12 02:55:28;;;;;;;;;;;9.70;1.00;;;;;;5068801;28;19919;-67
2021/10/12 02:57:54;;;;;;;;;;;9.70;1.00;;;;;;5066324;28;19912;-67
2021/10/12 03:00:19;;;;;;;;;;;9.60;1.00;;;;;;5069021;28;19908;-66
2021/10/12 03:02:45;;;;;;;;;;;9.50;1.00;;;;;;5067863;28;19912;-66
2021/10/12 03:05:11;;;;;;;;;;;9.50;1.00;;;;;;5068883;28;19913;-66
2021/10/12 03:07:36;;;;;;;;;;;9.40;1.00;;;;;;5068439;28;19924;-65
2021/10/12 03:10:03;;;;;;;;;;;9.40;1.00;;;;;;5068850;28;19912;-66
2021/10/12 03:12:28;;;;;;;;;;;9.40;1.00;;;;;;5065940;28;19912;-64
2021/10/12 03:14:54;;;;;;;;;;;9.40;1.00;;;;;;5068914;28;19958;-66
2021/10/12 03:17:19;;;;;;;;;;;9.40;1.00;;;;;;5067618;28;19978;-65
2021/10/12 03:19:45;;;;;;;;;;;9.40;1.00;;;;;;5067501;28;19909;-66
2021/10/12 03:22:12;;;;;;;;;;;9.40;1.00;;;;;;5067617;28;19912;-65
2021/10/12 03:24:38;;;;;;;;;;;9.40;1.00;;;;;;5068672;28;19916;-64
2021/10/12 03:27:05;;;;;;;;;;;9.50;1.00;;;;;;5066487;28;20054;-65
2021/10/12 03:29:31;;;;;;;;;;;9.50;1.00;;;;;;5068445;28;19912;-67
2021/10/12 03:31:59;;;;;;;;;;;9.50;1.00;;;;;;5067597;28;20312;-65
2021/10/12 03:34:28;;;;;;;;;;;9.60;1.00;;;;;;5070170;28;19952;-65
2021/10/12 03:36:54;;;;;;;;;;;9.60;1.00;;;;;;5071400;28;19924;-66
2021/10/12 03:39:23;;;;;;;;;;;9.50;1.00;;;;;;5072368;28;19974;-65
2021/10/12 03:41:50;;;;;;;;;;;9.50;1.00;;;;;;5070054;28;19989;-65
2021/10/12 03:44:16;;;;;;;;;;;9.40;1.00;;;;;;5072327;28;19954;-66
2021/10/12 03:46:41;;;;;;;;;;;9.40;1.00;;;;;;5071645;28;19919;-65
2021/10/12 03:49:07;;;;;;;;;;;9.40;1.00;;;;;;5072132;28;20337;-65
2021/10/12 03:51:32;;;;;;;;;;;9.20;1.00;;;;;;5071183;28;20312;-65
2021/10/12 03:53:58;;;;;;;;;;;9.10;1.00;;;;;;5070981;28;19919;-65
2021/10/12 03:56:23;;;;;;;;;;;9.10;1.00;;;;;;5070134;28;19912;-66
2021/10/12 03:58:49;;;;;;;;;;;9.10;1.00;;;;;;5071503;28;19916;-65
2021/10/12 04:01:14;;;;;;;;;;;9.00;1.00;;;;;;5071379;28;19912;-65
2021/10/12 04:03:43;;;;;;;;;;;8.90;1.00;;;;;;5052533;28;19920;-64
2021/10/12 04:06:09;;;;;;;;;;;8.90;1.00;;;;;;5071560;28;19916;-65
2021/10/12 04:08:35;;;;;;;;;;;8.90;1.00;;;;;;5072234;28;20319;-66
2021/10/12 04:11:00;;;;;;;;;;;8.90;1.00;;;;;;5071814;28;19962;-66
2021/10/12 04:13:26;;;;;;;;;;;8.90;1.00;;;;;;5068740;28;19916;-65
2021/10/12 04:15:52;;;;;;;;;;;8.90;1.00;;;;;;5071204;28;19966;-64
2021/10/12 04:18:17;;;;;;;;;;;8.90;1.00;;;;;;5071329;28;19912;-65
2021/10/12 04:20:43;;;;;;;;;;;9.00;1.00;;;;;;5071435;28;19924;-65
2021/10/12 04:23:10;;;;;;;;;;;8.90;1.00;;;;;;5070586;28;19912;-67
2021/10/12 04:25:36;;;;;;;;;;;8.90;1.00;;;;;;5070785;28;19908;-66
2021/10/12 04:28:04;;;;;;;;;;;8.90;1.00;;;;;;5069387;28;19912;-65
2021/10/12 04:30:30;;;;;;;;;;;8.80;1.00;;;;;;5071772;28;19909;-64
2021/10/12 04:32:55;;;;;;;;;;;8.80;1.00;;;;;;5070128;28;19912;-65
2021/10/12 04:35:21;;;;;;;;;;;8.80;1.00;;;;;;5071036;28;19909;-65
2021/10/12 04:37:46;;;;;;;;;;;8.80;1.00;;;;;;5064734;28;19991;-65
2021/10/12 04:40:12;;;;;;;;;;;8.80;1.00;;;;;;5069148;28;19915;-65
2021/10/12 04:42:37;;;;;;;;;;;8.80;1.00;;;;;;5066424;28;20666;-65
2021/10/12 04:45:03;;;;;;;;;;;8.80;1.00;;;;;;5071522;28;19913;-66
2021/10/12 04:47:29;;;;;;;;;;;8.80;1.00;;;;;;5069719;28;20013;-65
2021/10/12 04:49:54;;;;;;;;;;;8.90;1.00;;;;;;5068411;28;19909;-65
2021/10/12 04:52:20;;;;;;;;;;;8.90;1.00;;;;;;5067582;28;20027;-65
2021/10/12 04:54:45;;;;;;;;;;;9.00;1.00;;;;;;5068065;28;19999;-65
2021/10/12 04:57:11;;;;;;;;;;;9.00;1.00;;;;;;5066184;28;20380;-64
2021/10/12 04:59:36;;;;;;;;;;;9.10;1.00;;;;;;5068567;28;19919;-65
2021/10/12 05:02:02;;;;;;;;;;;9.10;1.00;;;;;;5066350;28;19912;-65
2021/10/12 05:04:27;;;;;;;;;;;9.10;1.00;;;;;;5081811;28;19912;-67
2021/10/12 05:06:53;;;;;;;;;;;9.20;1.00;;;;;;5087577;28;19951;-67
2021/10/12 05:09:18;;;;;;;;;;;9.20;1.00;;;;;;5067536;28;20049;-68
2021/10/12 05:11:44;;;;;;;;;;;9.20;1.00;;;;;;5065771;28;19920;-65
2021/10/12 05:14:09;;;;;;;;;;;9.20;1.00;;;;;;5066093;28;19912;-66
2021/10/12 05:16:35;;;;;;;;;;;9.10;1.00;;;;;;5062939;28;19912;-64
2021/10/12 05:19:01;;;;;;;;;;;9.10;1.00;;;;;;5067840;28;19958;-64
2021/10/12 05:21:27;;;;;;;;;;;9.10;1.00;;;;;;5067345;28;20546;-64
2021/10/12 05:23:53;;;;;;;;;;;9.10;1.00;;;;;;5065837;28;20364;-65
2021/10/12 05:26:19;;;;;;;;;;;9.10;1.00;;;;;;5065561;28;19999;-67
2021/10/12 05:28:44;;;;;;;;;;;9.10;1.00;;;;;;5066311;28;20030;-65
2021/10/12 05:31:10;;;;;;;;;;;9.10;1.00;;;;;;5066911;28;19932;-65
2021/10/12 05:33:36;;;;;;;;;;;9.10;1.00;;;;;;5065429;28;19930;-66
2021/10/12 05:36:02;;;;;;;;;;;9.10;1.00;;;;;;5067613;28;19999;-67
2021/10/12 05:38:28;;;;;;;;;;;9.10;1.00;;;;;;5066786;28;19908;-66
2021/10/12 05:40:53;;;;;;;;;;;9.10;1.00;;;;;;5067357;28;19908;-67
2021/10/12 05:43:19;;;;;;;;;;;9.10;1.00;;;;;;5065162;28;20530;-66
2021/10/12 05:45:45;;;;;;;;;;;9.10;1.00;;;;;;5067558;28;19909;-66
2021/10/12 05:48:11;;;;;;;;;;;9.10;1.00;;;;;;5074651;22;19933;-69
2021/10/12 05:50:37;;;;;;;;;;;9.20;1.00;;;;;;5045345;28;20003;-66
2021/10/12 05:53:43;;;;;;;;;;;9.20;1.00;;;;;;5044118;28;19987;-68
2021/10/12 06:00:55;;;;;;;;;;;9.20;1.00;;;;;;5045628;28;19913;-65
2021/10/12 06:03:21;;;;;;;;;;;9.30;1.00;;;;;;5044469;28;19917;-66
2021/10/12 06:05:47;;;;;;;;;;;9.30;1.00;;;;;;5045537;28;20374;-66
2021/10/12 06:08:12;;;;;;;;;;;9.40;1.00;;;;;;5044720;28;19917;-66
2021/10/12 06:10:38;;;;;;;;;;;9.40;1.00;;;;;;5045686;28;19908;-65
2021/10/12 06:13:09;;;;;;;;;;;9.50;1.00;;;;;;5042402;28;19937;-68
2021/10/12 06:15:34;;;;;;;;;;;9.60;1.00;;;;;;5045806;28;20346;-66
2021/10/12 06:18:00;;;;;;;;;;;9.70;1.00;;;;;;5045154;28;19952;-66
2021/10/12 06:20:25;;;;;;;;;;;9.70;1.00;;;;;;5046371;28;19988;-66
2021/10/12 06:22:51;;;;;;;;;;;9.80;1.00;;;;;;5045214;28;19913;-66
2021/10/12 06:25:16;;;;;;;;;;;9.80;1.00;;;;;;5045373;28;20007;-66
2021/10/12 06:27:43;;;;;;;;;;;9.90;1.00;;;;;;5044352;28;19909;-66
2021/10/12 06:30:09;;;;;;;;;;;9.90;1.00;;;;;;5045372;28;19992;-67
2021/10/12 06:32:34;;;;;;;;;;;10.00;1.00;;;;;;5043919;28;20073;-65
2021/10/12 06:35:00;;;;;;;;;;;10.00;1.00;;;;;;5045393;28;20015;-66
2021/10/12 06:37:25;;;;;;;;;;;10.10;1.00;;;;;;5026249;28;19912;-68
2021/10/12 06:39:51;;;;;;;;;;;10.00;1.00;;;;;;5047296;28;19909;-65
2021/10/12 06:42:16;;;;;;;;;;;10.10;1.00;;;;;;5045126;28;19935;-66
2021/10/12 06:44:42;;;;;;;;;;;10.10;1.00;;;;;;5047579;28;20013;-66
2021/10/12 06:47:07;;;;;;;;;;;10.10;1.00;;;;;;5047150;28;20354;-67
2021/10/12 06:49:33;;;;;;;;;;;10.10;1.00;;;;;;5047641;28;20242;-67
2021/10/12 06:51:58;;;;;;;;;;;10.20;1.00;;;;;;5046236;28;19915;-67
2021/10/12 06:54:24;;;;;;;;;;;10.20;1.00;;;;;;5047322;28;19916;-67
2021/10/12 06:56:50;;;;;;;;;;;10.20;99.90;;;;;;5050370;28;20006;-66
2021/10/12 06:59:15;;;;;;;;;;;10.20;99.90;;;;;;5048579;28;19912;-66
2021/10/12 07:01:41;;;;;;;;;;;10.20;1.00;;;;;;5048223;28;19913;-66
2021/10/12 07:04:06;;;;;;;;;;;10.20;1.00;;;;;;5048347;28;19913;-66
2021/10/12 07:06:32;;;;;;;;;;;10.20;1.00;;;;;;5048617;28;19909;-66
2021/10/12 07:08:57;;;;;;;;;;;10.30;1.00;;;;;;5048793;28;19920;-65
2021/10/12 07:11:22;;;;;;;;;;;10.40;1.00;;;;;;5050520;28;20679;-67
2021/10/12 07:13:49;;;;;;;;;;;10.50;99.90;;;;;;5051031;28;19962;-65
2021/10/12 07:16:16;;;;;;;;;;;10.50;99.90;;;;;;5051431;28;20005;-66
2021/10/12 07:18:41;;;;;;;;;;;10.50;99.90;;;;;;5051646;28;19992;-66
2021/10/12 07:21:08;;;;;;;;;;;10.60;99.90;;;;;;5051507;28;20298;-67
2021/10/12 07:23:34;;;;;;;;;;;10.70;1.00;;;;;;5050487;28;20322;-67
2021/10/12 07:25:59;;;;;;;;;;;10.80;99.90;;;;;;5051378;28;19912;-67
2021/10/12 07:28:25;;;;;;;;;;;11.00;1.00;;;;;;5058998;28;19912;-68
2021/10/12 07:30:50;;;;;;;;;;;11.10;99.90;;;;;;5071282;28;19924;-65
2021/10/12 07:33:16;;;;;;;;;;;11.20;99.90;;;;;;5070372;28;19912;-66
2021/10/12 07:35:43;;;;;;;;;;;11.10;1.00;;;;;;5071210;28;19981;-67
2021/10/12 07:38:12;;;;;;;;;;;11.20;1.00;;;;;;5056416;28;20343;-66
2021/10/12 07:40:39;;;;;;;;;;;11.20;1.00;;;;;;5051210;28;19917;-66
2021/10/12 07:43:05;;;;;;;;;;;11.20;99.90;;;;;;5048535;28;19912;-66
2021/10/12 07:45:30;;;;;;;;;;;11.30;99.90;;;;;;5051254;28;20330;-66
2021/10/12 07:47:58;;;;;;;;;;;11.30;1.00;;;;;;5050450;28;20245;-66
2021/10/12 07:50:23;;;;;;;;;;;11.30;1.00;;;;;;5050952;28;20372;-66
2021/10/12 07:52:49;;;;;;;;;;;11.30;99.90;;;;;;5049768;28;19909;-67
2021/10/12 07:55:27;;;;;;;;;;;11.30;99.90;;;;;;5051622;28;19913;-68
2021/10/12 07:57:54;;;;;;;;;;;11.30;1.00;;;;;;5049349;28;19932;-67
2021/10/12 08:00:19;;;;;;;;;;;11.30;99.90;;;;;;5051977;28;19940;-67
2021/10/12 08:02:45;;;;;;;;;;;11.20;99.90;;;;;;5049909;28;20387;-67
2021/10/12 08:05:10;;;;;;;;;;;11.10;1.00;;;;;;5051443;28;20422;-68
2021/10/12 08:07:36;;;;;;;;;;;11.10;99.90;;;;;;5051024;28;19908;-67
2021/10/12 08:10:02;;;;;;;;;;;11.10;99.90;;;;;;5051418;28;20665;-68
2021/10/12 08:12:27;;;;;;;;;;;11.10;99.90;;;;;;5047436;28;19972;-67
2021/10/12 08:14:59;;;;;;;;;;;11.10;1.00;;;;;;5050172;28;19916;-66
2021/10/12 08:17:25;;;;;;;;;;;11.20;1.00;;;;;;5050865;28;19913;-65
2021/10/12 08:19:50;;;;;;;;;;;11.30;1.00;;;;;;5059725;28;19915;-66
2021/10/12 08:22:16;;;;;;;;;;;11.50;99.90;;;;;;5048755;28;19924;-66
2021/10/12 08:24:41;;;;;;;;;;;11.60;99.90;;;;;;5051123;28;20310;-67
2021/10/12 08:27:07;;;;;;;;;;;11.80;17.00;;;;;;5048627;28;19963;-67
2021/10/12 08:29:33;;;;;;;;;;;11.90;1.00;;;;;;5069558;28;20230;-68
2021/10/12 08:31:58;;;;;;;;;;;12.00;1.00;;;;;;5070067;28;19918;-67
2021/10/12 08:34:24;;;;;;;;;;;12.10;99.90;;;;;;5071151;28;19909;-67
2021/10/12 08:36:49;;;;;;;;;;;12.10;99.90;;;;;;5066619;28;19916;-67
2021/10/12 08:39:15;;;;;;;;;;;12.10;99.90;;;;;;5050303;28;19999;-66
2021/10/12 08:41:46;;;;;;;;;;;12.20;99.90;;;;;;5048816;28;19920;-68
2021/10/12 08:44:11;;;;;;;;;;;12.20;99.90;;;;;;5049670;28;19919;-68
2021/10/12 08:46:37;;;;;;;;;;;12.20;99.90;;;;;;5050188;28;19912;-67
2021/10/12 08:49:02;;;;;;;;;;;12.30;99.90;;;;;;5050399;28;19978;-67
2021/10/12 08:51:28;;;;;;;;;;;12.40;99.90;;;;;;5050123;28;19921;-67
2021/10/12 08:53:54;;;;;;;;;;;12.50;99.90;;;;;;5049649;28;19960;-66
2021/10/12 08:56:19;;;;;;;;;;;12.60;99.90;;;;;;5049122;28;19920;-67
2021/10/12 08:58:45;;;;;;;;;;;12.70;99.90;;;;;;5049862;28;19916;-67
2021/10/12 09:01:11;;;;;;;;;;;12.80;99.90;;;;;;5049816;28;19998;-65
2021/10/12 09:03:43;;;;;;;;;;;12.90;33.30;;;;;;5049491;28;19912;-67
2021/10/12 09:06:09;;;;;;;;;;;12.70;1.00;;;;;;5050082;28;19924;-66
2021/10/12 09:08:41;;;;;;;;;;;12.50;1.00;;;;;;5049907;28;20650;-65
2021/10/12 09:11:19;;;;;;;;;;;12.20;10.60;;;;;;5050072;28;19913;-65
2021/10/12 09:13:45;;;;;;;;;;;12.10;93.40;;;;;;5048970;28;20373;-65
2021/10/12 09:16:12;;;;;;;;;;;12.00;99.90;;;;;;5049702;28;20393;-65
2021/10/12 09:18:46;;;;;;;;;;;11.80;99.90;;;;;;5057854;28;20211;-66
2021/10/12 09:21:12;;;;;;;;;;;11.70;99.90;;;;;;5029437;28;20388;-65
2021/10/12 09:23:41;;;;;;;;;;;11.60;99.90;;;;;;5031176;28;19921;-66
2021/10/12 09:26:20;;;;;;;;;;;11.60;1.00;;;;;;5050319;28;19909;-65
2021/10/12 09:28:45;;;;;;;;;;;11.60;1.00;;;;;;5061804;28;19978;-67
2021/10/12 09:31:11;;;;;;;;;;;11.60;1.00;;;;;;5069825;28;20361;-66
2021/10/12 09:33:49;;;;;;;;;;;11.70;1.00;;;;;;5068931;28;20019;-66
2021/10/12 09:36:31;;;;;;;;;;;11.70;1.00;;;;;;5069793;28;19931;-65
2021/10/12 09:38:57;;;;;;;;;;;11.80;1.00;;;;;;5029927;28;20046;-68
2021/10/12 09:41:24;;;;;;;;;;;11.80;1.00;;;;;;5028562;28;19913;-66
2021/10/12 09:43:50;;;;;;;;;;;11.90;1.00;;;;;;5028612;28;20028;-68
2021/10/12 09:46:31;;;;;;;;;;;11.90;1.00;;;;;;5029600;28;20159;-68
2021/10/12 09:49:15;;;;;;;;;;;11.90;1.00;;;;;;5029417;28;19925;-68
2021/10/12 09:51:42;;;;;;;;;;;11.90;1.00;;;;;;5028993;28;19943;-68
2021/10/12 09:54:18;;;;;;;;;;;12.00;1.00;;;;;;5028576;28;20007;-67
2021/10/12 09:56:44;;;;;;;;;;;12.10;99.90;;;;;;5027592;28;19913;-68
2021/10/12 09:59:10;;;;;;;;;;;12.10;99.90;;;;;;5029733;28;19917;-69
2021/10/12 10:01:36;;;;;;;;;;;12.20;99.90;;;;;;5028706;28;19909;-68
2021/10/12 10:04:01;;;;;;;;;;;12.20;99.90;;;;;;5028700;28;20012;-69
2021/10/12 10:06:27;;;;;;;;;;;12.20;99.90;;;;;;5028976;28;20468;-69
2021/10/12 10:08:53;;;;;;;;;;;12.20;1.00;;;;;;5029507;28;19972;-69
2021/10/12 10:11:19;;;;;;;;;;;12.20;1.00;;;;;;5028712;28;19920;-67
2021/10/12 10:13:45;;;;;;;;;;;12.20;1.00;;;;;;5027690;28;19913;-67
2021/10/12 10:16:11;;;;;;;;;;;12.30;1.00;;;;;;5035580;28;20018;-67
2021/10/12 10:18:38;;;;;;;;;;;12.10;99.90;;;;;;5048809;28;19909;-66
2021/10/12 10:21:04;;;;;;;;;;;12.10;99.90;;;;;;5048626;28;19917;-65
2021/10/12 10:23:48;;;;;;;;;;;12.10;99.90;;;;;;5047924;28;20336;-67
2021/10/12 10:26:43;;;;;;;;;;;12.00;99.90;;;;;;5048076;28;19909;-68
2021/10/12 10:29:22;;;;;;;;;;;12.00;99.90;;;;;;5051091;28;19913;-65
2021/10/12 10:31:55;;;;;;;;;;;12.10;99.90;;;;;;5067685;28;19919;-66
2021/10/12 10:34:27;;;;;;;;;;;12.10;99.90;;;;;;5069227;28;19908;-66
2021/10/12 10:37:11;;;;;;;;;;;12.00;99.90;;;;;;5064622;28;19924;-67
2021/10/12 10:39:37;;;;;;;;;;;12.10;99.90;;;;;;5048432;28;19921;-68
2021/10/12 10:42:03;;;;;;;;;;;12.10;99.90;;;;;;5045415;28;20083;-66
2021/10/12 10:44:47;;;;;;;;;;;12.10;99.90;;;;;;5050884;28;20385;-68
2021/10/12 10:47:32;;;;;;;;;;;12.10;99.90;;;;;;5052312;28;20005;-68
2021/10/12 10:50:10;;;;;;;;;;;12.30;99.90;;;;;;5052401;28;20304;-66
2021/10/12 10:52:45;;;;;;;;;;;12.40;99.90;;;;;;5051296;28;19909;-66
2021/10/12 10:55:12;;;;;;;;;;;12.50;99.90;;;;;;5053429;28;19996;-65
2021/10/12 10:57:38;;;;;;;;;;;12.60;99.90;;;;;;5050497;28;19928;-66
2021/10/12 11:00:18;;;;;;;;;;;12.80;75.40;;;;;;5034216;28;19913;-66
2021/10/12 11:02:44;;;;;;;;;;;12.80;8.90;;;;;;5051158;28;19917;-66
2021/10/12 11:05:10;;;;;;;;;;;13.00;1.00;;;;;;5052608;28;19923;-65
2021/10/12 11:07:35;;;;;;;;;;;13.00;1.00;;;;;;5051467;28;20026;-67
2021/10/12 11:10:00;;;;;;;;;;;13.10;1.00;;;;;;5052668;28;19944;-65
2021/10/12 11:12:26;;;;;;;;;;;13.10;1.00;;;;;;5049562;28;20494;-66
2021/10/12 11:14:52;;;;;;;;;;;13.20;1.00;;;;;;5052273;28;19909;-67
2021/10/12 11:17:18;;;;;;;;;;;13.20;1.00;;;;;;5051450;28;19955;-67
2021/10/12 11:19:53;;;;;;;;;;;13.30;1.00;;;;;;5052292;28;19916;-66
2021/10/12 11:22:19;;;;;;;;;;;13.20;1.00;;;;;;5050952;28;19917;-66
2021/10/12 11:24:45;;;;;;;;;;;13.20;1.00;;;;;;5052098;28;20280;-66
2021/10/12 11:27:11;;;;;;;;;;;13.20;1.00;;;;;;5050375;28;19963;-67
2021/10/12 11:29:36;;;;;;;;;;;13.20;1.00;;;;;;5071438;28;20359;-67
2021/10/12 11:32:02;;;;;;;;;;;13.10;1.00;;;;;;5070726;28;19912;-66
2021/10/12 11:34:28;;;;;;;;;;;13.10;1.00;;;;;;5072095;28;19916;-67
2021/10/12 11:37:05;;;;;;;;;;;13.20;1.00;;;;;;5067862;28;19925;-67
2021/10/12 11:39:30;;;;;;;;;;;13.40;1.00;;;;;;5052017;28;19931;-66
2021/10/12 11:41:59;;;;;;;;;;;13.50;1.00;;;;;;5049360;28;19909;-66
2021/10/12 11:44:25;;;;;;;;;;;13.70;1.00;;;;;;5051759;28;19917;-66
2021/10/12 11:46:59;;;;;;;;;;;13.80;1.00;;;;;;5051297;28;19963;-68
2021/10/12 11:49:25;;;;;;;;;;;13.90;1.00;;;;;;5051576;28;20016;-66
2021/10/12 11:51:51;;;;;;;;;;;13.90;1.00;;;;;;5050125;28;20020;-66
2021/10/12 11:54:27;;;;;;;;;;;14.10;1.00;;;;;;5050230;28;19916;-66
2021/10/12 11:56:53;;;;;;;;;;;14.20;1.00;;;;;;5049827;28;20361;-68
2021/10/12 11:59:19;;;;;;;;;;;14.30;1.00;;;;;;5052165;28;19909;-67
2021/10/12 12:01:45;;;;;;;;;;;14.30;1.00;;;;;;5051691;28;19908;-67
2021/10/12 12:04:11;;;;;;;;;;;14.40;99.90;;;;;;5051210;28;19915;-66
2021/10/12 12:06:42;;;;;;;;;;;14.40;99.90;;;;;;5051543;28;19962;-66
2021/10/12 12:09:15;;;;;;;;;;;14.50;99.90;;;;;;5051695;28;19913;-66
2021/10/12 12:11:41;;;;;;;;;;;14.60;99.90;;;;;;5050256;28;19913;-66
2021/10/12 12:14:06;;;;;;;;;;;14.90;99.90;;;;;;5050447;28;20389;-66
2021/10/12 12:16:34;;;;;;;;;;;14.90;99.90;;;;;;5050680;28;19909;-66
2021/10/12 12:19:20;;;;;;;;;;;15.00;99.90;;;;;;5062392;28;19958;-66
2021/10/12 12:21:49;;;;;;;;;;;15.20;99.90;;;;;;5069831;28;19995;-66
2021/10/12 12:24:22;;;;;;;;;;;15.10;99.90;;;;;;5064120;28;19920;-67
2021/10/12 12:26:48;;;;;;;;;;;15.00;99.90;;;;;;5049760;28;19908;-66
2021/10/12 12:29:20;;;;;;;;;;;14.80;99.90;;;;;;5067556;28;20056;-68
2021/10/12 12:31:50;;;;;;;;;;;14.30;99.90;;;;;;5070592;28;19985;-66
2021/10/12 12:34:23;;;;;;;;;;;13.90;99.90;;;;;;5071334;28;19953;-66
2021/10/12 12:36:49;;;;;;;;;;;13.60;99.90;;;;;;5067900;28;20289;-66
2021/10/12 12:39:14;;;;;;;;;;;13.50;99.90;;;;;;5051430;28;19909;-66
2021/10/12 12:41:41;;;;;;;;;;;13.30;1.00;;;;;;5049804;28;19913;-66
2021/10/12 12:44:07;;;;;;;;;;;13.10;1.00;;;;;;5050303;28;19989;-66
2021/10/12 12:46:32;;;;;;;;;;;12.90;1.00;;;;;;5050448;28;19909;-67
2021/10/12 12:49:01;;;;;;;;;;;12.80;1.00;;;;;;5050950;28;19920;-66
2021/10/12 12:51:29;;;;;;;;;;;12.70;1.00;;;;;;5050848;28;19913;-66
2021/10/12 12:53:54;;;;;;;;;;;12.60;1.00;;;;;;5050110;28;19940;-66
2021/10/12 12:56:20;;;;;;;;;;;12.50;1.00;;;;;;5049252;28;19963;-66
2021/10/12 12:58:46;;;;;;;;;;;12.60;1.00;;;;;;5050081;28;19916;-67
2021/10/12 13:01:16;;;;;;;;;;;12.80;1.00;;;;;;5050411;28;19935;-66
2021/10/12 13:03:42;;;;;;;;;;;13.00;1.00;;;;;;5049833;28;20360;-66
2021/10/12 13:06:08;;;;;;;;;;;13.10;1.00;;;;;;5050631;28;19916;-67
2021/10/12 13:08:35;;;;;;;;;;;13.30;1.00;;;;;;5049382;28;19916;-66
2021/10/12 13:11:01;;;;;;;;;;;13.40;1.00;;;;;;5050575;28;19986;-66
2021/10/12 13:13:26;;;;;;;;;;;13.50;1.00;;;;;;5047760;28;19909;-69
2021/10/12 13:15:52;;;;;;;;;;;13.70;1.00;;;;;;5049920;28;19917;-67
2021/10/12 13:18:19;;;;;;;;;;;13.80;1.00;;;;;;5049617;28;19909;-66
2021/10/12 13:20:44;;;;;;;;;;;13.80;1.00;;;;;;5050340;28;19932;-66
2021/10/12 13:23:10;;;;;;;;;;;13.90;99.90;;;;;;5049151;28;19913;-69
2021/10/12 13:25:36;;;;;;;;;;;13.90;1.00;;;;;;5050375;28;20003;-67
2021/10/12 13:28:01;;;;;;;;;;;14.00;1.00;;;;;;5053969;28;19988;-66
2021/10/12 13:30:27;;;;;;;;;;;14.10;99.90;;;;;;5069883;28;20026;-70
2021/10/12 13:32:52;;;;;;;;;;;14.10;99.90;;;;;;5067769;28;19935;-67
2021/10/12 13:35:18;;;;;;;;;;;14.20;99.90;;;;;;5069955;28;20388;-69
2021/10/12 13:37:44;;;;;;;;;;;14.20;99.90;;;;;;5058124;28;19909;-69
2021/10/12 13:40:10;;;;;;;;;;;14.30;1.00;;;;;;5049684;28;20408;-66
2021/10/12 13:42:38;;;;;;;;;;;14.30;99.90;;;;;;5046755;28;19939;-69
2021/10/12 13:45:09;;;;;;;;;;;14.20;99.90;;;;;;5049591;28;19954;-66
2021/10/12 13:47:34;;;;;;;;;;;14.30;99.90;;;;;;5049040;28;20289;-66
2021/10/12 13:49:59;;;;;;;;;;;14.40;99.90;;;;;;5049779;28;19913;-67
2021/10/12 13:52:25;;;;;;;;;;;14.40;99.90;;;;;;5048763;28;19982;-69
2021/10/12 13:54:51;;;;;;;;;;;14.40;99.90;;;;;;5059386;28;19931;-67
2021/10/12 13:57:16;;;;;;;;;;;14.50;99.90;;;;;;5049476;28;20710;-67
2021/10/12 13:59:42;;;;;;;;;;;14.50;99.90;;;;;;5069683;28;19913;-66
2021/10/12 14:02:10;;;;;;;;;;;14.30;99.90;;;;;;5067992;28;20342;-67
2021/10/12 14:04:35;;;;;;;;;;;14.40;99.90;;;;;;5069520;28;20098;-70
2021/10/12 14:07:01;;;;;;;;;;;14.30;99.90;;;;;;5068729;28;20106;-66
2021/10/12 14:09:26;;;;;;;;;;;14.20;99.90;;;;;;5069491;28;19915;-69
2021/10/12 14:11:52;;;;;;;;;;;14.20;99.90;;;;;;5067094;28;20342;-70
2021/10/12 14:14:17;;;;;;;;;;;14.10;99.90;;;;;;5068790;28;20456;-69
2021/10/12 14:16:43;;;;;;;;;;;13.90;99.90;;;;;;5057910;28;19912;-68
2021/10/12 14:19:08;;;;;;;;;;;13.90;99.90;;;;;;5048662;28;20067;-69
2021/10/12 14:21:35;;;;;;;;;;;13.70;99.90;;;;;;5049284;28;20007;-69
2021/10/12 14:24:01;;;;;;;;;;;13.60;99.90;;;;;;5048452;28;19916;-68
2021/10/12 14:26:29;;;;;;;;;;;13.40;99.90;;;;;;5048283;28;20652;-69
2021/10/12 14:28:54;;;;;;;;;;;13.30;99.90;;;;;;5061831;28;19909;-68
2021/10/12 14:31:20;;;;;;;;;;;13.20;99.90;;;;;;5068805;28;20422;-68